Time,TemperatureF,DewpointF,PressureIn,WindDirection,WindDirectionDegrees,WindSpeedMPH,WindSpeedGustMPH,Humidity,HourlyPrecipIn,Conditions,Clouds,dailyrainin,SoftwareType,DateUTC
2013-07-28 00:02:00,49.0,38.0,-100.00,SW,218,0.0,8.0,65,0.00,,,0.24,,2013-07-28 06:02:00,
2013-07-28 00:12:00,49.0,38.0,-100.00,SW,218,0.0,8.0,65,0.00,,,0.24,,2013-07-28 06:12:00,
2013-07-28 00:22:00,49.0,38.0,-100.00,SW,218,0.0,8.0,65,0.00,,,0.24,,2013-07-28 06:22:00,
2013-07-28 00:53:00,49.0,39.0,-100.00,SSE,151,4.0,13.0,67,0.00,,,0.24,,2013-07-28 06:53:00,
2013-07-28 01:02:00,49.0,39.0,-100.00,SSE,151,4.0,13.0,67,0.00,,,0.24,,2013-07-28 07:02:00,
2013-07-28 01:12:00,49.0,39.0,-100.00,SSE,151,4.0,13.0,67,0.00,,,0.24,,2013-07-28 07:12:00,
2013-07-28 01:22:00,49.0,39.0,-100.00,SSE,151,4.0,13.0,67,0.00,,,0.24,,2013-07-28 07:22:00,
2013-07-28 01:53:00,49.0,41.0,-100.00,SW,232,5.0,13.0,74,0.00,,,0.24,,2013-07-28 07:53:00,
2013-07-28 02:02:00,49.0,41.0,-100.00,SW,232,5.0,13.0,74,0.00,,,0.24,,2013-07-28 08:02:00,
2013-07-28 02:12:00,49.0,41.0,-100.00,SW,232,5.0,13.0,74,0.00,,,0.24,,2013-07-28 08:12:00,
2013-07-28 02:22:00,49.0,41.0,-100.00,SW,232,5.0,13.0,74,0.00,,,0.24,,2013-07-28 08:22:00,
2013-07-28 02:53:00,48.0,41.0,-100.00,SE,139,0.0,7.0,78,0.00,,,0.24,,2013-07-28 08:53:00,
2013-07-28 03:02:00,48.0,41.0,-100.00,SE,139,0.0,7.0,78,0.00,,,0.24,,2013-07-28 09:02:00,
2013-07-28 03:12:00,48.0,41.0,-100.00,SE,139,0.0,7.0,78,0.00,,,0.24,,2013-07-28 09:12:00,
2013-07-28 03:22:00,48.0,41.0,-100.00,SE,139,0.0,7.0,78,0.00,,,0.24,,2013-07-28 09:22:00,
2013-07-28 03:53:00,47.0,41.0,-100.00,NW,323,2.0,7.0,81,0.00,,,0.24,,2013-07-28 09:53:00,
2013-07-28 04:02:00,47.0,41.0,-100.00,NW,323,2.0,7.0,81,0.00,,,0.24,,2013-07-28 10:02:00,
2013-07-28 04:12:00,47.0,41.0,-100.00,NW,323,2.0,7.0,81,0.00,,,0.24,,2013-07-28 10:12:00,
2013-07-28 04:22:00,47.0,41.0,-100.00,NW,323,2.0,7.0,81,0.00,,,0.24,,2013-07-28 10:22:00,
2013-07-28 04:53:00,46.0,42.0,-100.00,SW,234,5.0,15.0,85,0.00,,,0.24,,2013-07-28 10:53:00,
2013-07-28 05:02:00,46.0,42.0,-100.00,SW,234,5.0,15.0,85,0.00,,,0.24,,2013-07-28 11:02:00,
2013-07-28 05:12:00,46.0,42.0,-100.00,SW,234,5.0,15.0,85,0.00,,,0.24,,2013-07-28 11:12:00,
2013-07-28 05:22:00,46.0,42.0,-100.00,SW,234,5.0,15.0,85,0.00,,,0.24,,2013-07-28 11:22:00,
2013-07-28 05:54:00,46.0,42.0,-100.00,SSW,209,0.0,10.0,86,0.00,,,0.24,,2013-07-28 11:54:00,
2013-07-28 06:02:00,46.0,42.0,-100.00,SSW,209,0.0,10.0,86,0.00,,,0.24,,2013-07-28 12:02:00,
2013-07-28 06:12:00,46.0,42.0,-100.00,SSW,209,0.0,10.0,86,0.00,,,0.24,,2013-07-28 12:12:00,
2013-07-28 06:22:00,46.0,42.0,-100.00,SSW,209,0.0,10.0,86,0.00,,,0.24,,2013-07-28 12:22:00,
2013-07-28 06:53:00,44.0,43.0,-100.00,WSW,237,3.0,10.0,95,0.00,,,0.24,,2013-07-28 12:53:00,
2013-07-28 07:02:00,44.0,43.0,-100.00,WSW,237,3.0,10.0,95,0.00,,,0.24,,2013-07-28 13:02:00,
2013-07-28 07:12:00,44.0,43.0,-100.00,WSW,237,3.0,10.0,95,0.00,,,0.24,,2013-07-28 13:12:00,
2013-07-28 07:22:00,44.0,43.0,-100.00,WSW,237,3.0,10.0,95,0.00,,,0.24,,2013-07-28 13:22:00,
2013-07-28 07:53:00,46.0,44.0,-100.00,ENE,57,0.0,6.0,92,0.00,,,0.24,,2013-07-28 13:53:00,
2013-07-28 08:02:00,46.0,44.0,-100.00,ENE,57,0.0,6.0,92,0.00,,,0.24,,2013-07-28 14:02:00,
2013-07-28 08:12:00,46.0,44.0,-100.00,ENE,57,0.0,6.0,92,0.00,,,0.24,,2013-07-28 14:12:00,
2013-07-28 08:23:00,46.0,44.0,-100.00,ENE,57,0.0,6.0,92,0.00,,,0.24,,2013-07-28 14:23:00,
2013-07-28 08:53:00,49.0,46.0,-100.00,WNW,300,5.0,9.0,88,0.00,,,0.24,,2013-07-28 14:53:00,
2013-07-28 09:02:00,49.0,46.0,-100.00,WNW,300,5.0,9.0,88,0.00,,,0.24,,2013-07-28 15:02:00,
2013-07-28 09:13:00,49.0,46.0,-100.00,WNW,300,5.0,9.0,88,0.00,,,0.24,,2013-07-28 15:13:00,
2013-07-28 09:22:00,49.0,46.0,-100.00,WNW,300,5.0,9.0,88,0.00,,,0.24,,2013-07-28 15:22:00,
2013-07-28 09:53:00,51.0,47.0,-100.00,North,357,3.0,8.0,87,0.00,,,0.24,,2013-07-28 15:53:00,
2013-07-28 10:02:00,51.0,47.0,-100.00,North,357,3.0,8.0,87,0.00,,,0.24,,2013-07-28 16:02:00,
2013-07-28 10:12:00,51.0,47.0,-100.00,North,357,3.0,8.0,87,0.00,,,0.24,,2013-07-28 16:12:00,
2013-07-28 10:22:00,51.0,47.0,-100.00,North,357,3.0,8.0,87,0.00,,,0.24,,2013-07-28 16:22:00,
2013-07-28 10:52:00,51.0,48.0,-100.00,West,273,6.0,15.0,88,0.00,,,0.24,,2013-07-28 16:52:00,
2013-07-28 11:02:00,51.0,48.0,-100.00,West,273,6.0,15.0,88,0.00,,,0.24,,2013-07-28 17:02:00,
2013-07-28 11:12:00,51.0,48.0,-100.00,West,273,6.0,15.0,88,0.00,,,0.24,,2013-07-28 17:12:00,
2013-07-28 11:22:00,51.0,48.0,-100.00,West,273,6.0,15.0,88,0.00,,,0.24,,2013-07-28 17:22:00,
2013-07-28 11:53:00,49.0,47.0,-100.00,WNW,282,5.0,17.0,93,0.00,,,0.24,,2013-07-28 17:53:00,
2013-07-28 12:03:00,49.0,47.0,-100.00,WNW,282,5.0,17.0,93,0.00,,,0.24,,2013-07-28 18:03:00,
2013-07-28 12:12:00,49.0,47.0,-100.00,WNW,282,5.0,17.0,93,0.00,,,0.24,,2013-07-28 18:12:00,
2013-07-28 12:22:00,49.0,47.0,-100.00,WNW,282,5.0,17.0,93,0.00,,,0.24,,2013-07-28 18:22:00,
2013-07-28 12:52:00,50.0,48.0,-100.00,WSW,248,6.0,16.0,93,0.03,,,0.27,,2013-07-28 18:52:00,
2013-07-28 13:02:00,50.0,48.0,-100.00,WSW,248,6.0,16.0,93,0.03,,,0.27,,2013-07-28 19:02:00,
2013-07-28 13:12:00,50.0,48.0,-100.00,WSW,248,6.0,16.0,93,0.03,,,0.27,,2013-07-28 19:12:00,
2013-07-28 13:22:00,50.0,48.0,-100.00,WSW,248,6.0,16.0,93,0.03,,,0.27,,2013-07-28 19:22:00,
2013-07-28 14:53:00,51.0,47.0,-100.00,SW,228,3.0,95.0,85,0.06,,,0.44,,2013-07-28 20:53:00,
2013-07-28 15:03:00,51.0,47.0,-100.00,SW,228,3.0,95.0,85,0.06,,,0.44,,2013-07-28 21:03:00,
2013-07-28 15:12:00,51.0,47.0,-100.00,SW,228,3.0,95.0,85,0.06,,,0.44,,2013-07-28 21:12:00,
2013-07-28 15:22:00,51.0,47.0,-100.00,SW,228,3.0,95.0,85,0.06,,,0.44,,2013-07-28 21:22:00,
2013-07-28 15:52:00,54.0,47.0,-100.00,WSW,251,8.0,15.0,76,0.00,,,0.44,,2013-07-28 21:52:00,
2013-07-28 16:02:00,54.0,47.0,-100.00,WSW,251,8.0,15.0,76,0.00,,,0.44,,2013-07-28 22:02:00,
2013-07-28 16:12:00,54.0,47.0,-100.00,WSW,251,8.0,15.0,76,0.00,,,0.44,,2013-07-28 22:12:00,
2013-07-28 16:22:00,54.0,47.0,-100.00,WSW,251,8.0,15.0,76,0.00,,,0.44,,2013-07-28 22:22:00,
2013-07-28 16:52:00,57.0,49.0,-100.00,WSW,242,5.0,17.0,75,0.00,,,0.44,,2013-07-28 22:52:00,
2013-07-28 17:03:00,57.0,49.0,-100.00,WSW,242,5.0,17.0,75,0.00,,,0.44,,2013-07-28 23:03:00,
2013-07-28 17:12:00,57.0,49.0,-100.00,WSW,242,5.0,17.0,75,0.00,,,0.44,,2013-07-28 23:12:00,
2013-07-28 17:22:00,57.0,49.0,-100.00,WSW,242,5.0,17.0,75,0.00,,,0.44,,2013-07-28 23:22:00,
2013-07-28 17:53:00,58.0,47.0,-100.00,SW,225,5.0,12.0,66,0.00,,,0.44,,2013-07-28 23:53:00,
2013-07-28 18:03:00,58.0,47.0,-100.00,SW,225,5.0,12.0,66,0.00,,,0.44,,2013-07-29 00:03:00,
2013-07-28 18:12:00,58.0,47.0,-100.00,SW,225,5.0,12.0,66,0.00,,,0.44,,2013-07-29 00:12:00,
2013-07-28 18:22:00,58.0,47.0,-100.00,SW,225,5.0,12.0,66,0.00,,,0.44,,2013-07-29 00:22:00,
2013-07-28 18:52:00,59.0,45.0,-100.00,WSW,257,6.0,27.0,60,0.00,,,0.44,,2013-07-29 00:52:00,
2013-07-28 19:02:00,59.0,45.0,-100.00,WSW,257,6.0,27.0,60,0.00,,,0.44,,2013-07-29 01:02:00,
2013-07-28 20:00:00,55.0,45.0,-100.00,WNW,291,10.0,30.0,69,0.00,,,0.42,,2013-07-29 02:00:00,
2013-07-28 20:14:00,55.0,45.0,-100.00,WNW,291,10.0,30.0,69,0.00,,,0.42,,2013-07-29 02:14:00,
2013-07-28 20:24:00,55.0,45.0,-100.00,WNW,291,10.0,30.0,69,0.00,,,0.42,,2013-07-29 02:24:00,
2013-07-28 20:58:00,52.0,44.0,-100.00,West,267,6.0,27.0,74,0.00,,,0.26,,2013-07-29 02:58:00,
2013-07-28 21:03:00,52.0,44.0,-100.00,West,267,6.0,27.0,74,0.00,,,0.26,,2013-07-29 03:03:00,
2013-07-28 21:24:00,52.0,44.0,-100.00,West,267,6.0,27.0,74,0.00,,,0.26,,2013-07-29 03:24:00,
2013-07-28 21:58:00,51.0,45.0,-100.00,SSW,206,6.0,20.0,79,0.00,,,0.20,,2013-07-29 03:58:00,
2013-07-28 22:02:00,51.0,45.0,-100.00,SSW,206,6.0,20.0,79,0.00,,,0.20,,2013-07-29 04:02:00,
2013-07-28 22:12:00,51.0,45.0,-100.00,SSW,206,6.0,20.0,79,0.00,,,0.20,,2013-07-29 04:12:00,
2013-07-28 22:22:00,51.0,45.0,-100.00,SSW,206,6.0,20.0,79,0.00,,,0.20,,2013-07-29 04:22:00,
2013-07-28 22:53:00,52.0,43.0,-100.00,WSW,246,5.0,40.0,70,0.00,,,0.20,,2013-07-29 04:53:00,
2013-07-28 23:02:00,52.0,43.0,-100.00,WSW,246,5.0,40.0,70,0.00,,,0.20,,2013-07-29 05:02:00,
2013-07-28 23:12:00,52.0,43.0,-100.00,WSW,246,5.0,40.0,70,0.00,,,0.20,,2013-07-29 05:12:00,
2013-07-28 23:22:00,52.0,43.0,-100.00,WSW,246,5.0,40.0,70,0.00,,,0.20,,2013-07-29 05:22:00,
2013-07-28 23:53:00,52.0,39.0,-100.00,WSW,246,0.0,40.0,62,0.00,,,0.20,,2013-07-29 05:53:00,